createdAt,value
2022-09-13T00:02:13.661Z,77.35
2022-09-13T00:04:39.976Z,79.68
2022-09-13T00:07:06.225Z,69.05
2022-09-13T00:09:32.484Z,68.57
2022-09-13T00:11:58.739Z,64.53
2022-09-13T00:14:26.606Z,63.85
2022-09-13T00:16:52.869Z,59.03
2022-09-13T00:19:19.139Z,59.10
2022-09-13T00:21:45.563Z,63.25
2022-09-13T00:24:11.856Z,70.45
2022-09-13T00:26:38.143Z,68.88
2022-09-13T00:29:04.398Z,71.22
2022-09-13T00:31:30.731Z,73.28
2022-09-13T00:33:58.434Z,66.22
2022-09-13T00:36:24.711Z,71.45
2022-09-13T00:38:50.977Z,75.88
2022-09-13T00:41:17.269Z,73.60
2022-09-13T00:43:43.524Z,67.47
2022-09-13T00:46:09.837Z,71.20
2022-09-13T00:48:36.137Z,68.38
2022-09-13T00:51:02.416Z,74.38
2022-09-13T00:53:30.067Z,82.70
2022-09-13T00:55:56.319Z,71.07
2022-09-13T00:58:22.589Z,79.85
2022-09-13T01:00:48.936Z,85.20
2022-09-13T01:03:15.219Z,80.40
2022-09-13T01:05:41.502Z,78.03
2022-09-13T01:08:18.045Z,75.28
2022-09-13T01:10:44.311Z,84.15
2022-09-13T01:13:14.720Z,73.13
2022-09-13T01:15:40.991Z,72.00
2022-09-13T01:18:07.290Z,79.38
2022-09-13T01:20:33.548Z,78.78
2022-09-13T01:22:59.815Z,84.00
2022-09-13T01:25:27.427Z,76.00
2022-09-13T01:27:53.988Z,74.05
2022-09-13T01:30:20.501Z,56.15
2022-09-13T01:32:46.756Z,54.70
2022-09-13T01:35:13.012Z,54.22
2022-09-13T01:37:39.695Z,55.58
2022-09-13T01:40:06.244Z,53.03
2022-09-13T01:42:32.559Z,50.72
2022-09-13T01:44:58.839Z,51.65
2022-09-13T01:47:25.611Z,49.10
2022-09-13T01:49:51.887Z,53.47
2022-09-13T01:52:18.191Z,51.55
2022-09-13T01:54:44.457Z,50.38
2022-09-13T01:57:10.807Z,49.83
2022-09-13T01:59:37.093Z,51.08
2022-09-13T02:02:03.418Z,50.42
2022-09-13T02:04:29.728Z,48.78
2022-09-13T02:06:55.991Z,49.15
2022-09-13T02:09:22.254Z,48.70
2022-09-13T02:11:48.518Z,49.97
2022-09-13T02:14:14.771Z,54.55
2022-09-13T02:16:41.304Z,48.13
2022-09-13T02:19:07.624Z,45.55
2022-09-13T02:21:34.021Z,45.88
2022-09-13T02:24:00.284Z,43.60
2022-09-13T02:26:26.536Z,42.78
2022-09-13T02:28:53.447Z,46.60
2022-09-13T02:31:19.813Z,45.10
2022-09-13T02:33:46.240Z,46.15
2022-09-13T02:36:12.559Z,54.38
2022-09-13T02:38:38.823Z,52.20
2022-09-13T02:41:05.079Z,50.40
2022-09-13T02:43:31.624Z,54.58
2022-09-13T02:45:59.240Z,55.03
2022-09-13T02:48:25.516Z,48.58
2022-09-13T02:50:51.871Z,45.30
2022-09-13T02:53:18.119Z,64.57
2022-09-13T02:55:44.393Z,59.42
2022-09-13T02:58:10.652Z,61.72
2022-09-13T03:00:36.908Z,63.70
2022-09-13T03:03:03.163Z,54.10
2022-09-13T03:05:29.424Z,51.75
2022-09-13T03:07:55.675Z,63.25
2022-09-13T03:10:23.111Z,65.40
2022-09-13T03:12:49.363Z,61.15
2022-09-13T03:15:15.629Z,67.53
2022-09-13T03:17:41.893Z,63.38
2022-09-13T03:20:09.384Z,63.00
2022-09-13T03:22:35.639Z,55.25
2022-09-13T03:25:01.903Z,53.78
2022-09-13T03:27:28.173Z,50.83
2022-09-13T03:29:54.449Z,48.42
2022-09-13T03:32:20.703Z,58.00
2022-09-13T03:34:46.958Z,65.03
2022-09-13T03:37:13.229Z,57.78
2022-09-13T03:39:39.533Z,54.90
2022-09-13T03:42:05.812Z,53.97
2022-09-13T03:44:32.078Z,55.05
2022-09-13T03:46:58.341Z,55.28
2022-09-13T03:49:24.617Z,53.20
2022-09-13T03:51:50.941Z,49.03
2022-09-13T03:54:17.200Z,47.95
2022-09-13T03:56:43.456Z,53.28
2022-09-13T03:59:09.720Z,53.40
2022-09-13T04:01:35.967Z,47.67
2022-09-13T04:04:02.245Z,45.97
2022-09-13T04:06:28.504Z,43.83
2022-09-13T04:08:54.779Z,43.25
2022-09-13T04:11:21.515Z,42.42
2022-09-13T04:13:47.879Z,41.70
2022-09-13T04:16:14.299Z,43.72
2022-09-13T04:18:40.809Z,41.72
2022-09-13T04:21:07.236Z,47.97
2022-09-13T04:23:33.538Z,39.65
2022-09-13T04:25:59.887Z,36.35
2022-09-13T04:28:26.192Z,35.95
2022-09-13T04:30:52.446Z,36.90
2022-09-13T04:33:18.694Z,35.15
2022-09-13T04:35:44.939Z,31.38
2022-09-13T04:38:14.511Z,40.05
2022-09-13T04:40:40.809Z,33.50
2022-09-13T04:43:07.080Z,34.42
2022-09-13T04:45:35.134Z,32.15
2022-09-13T04:50:27.604Z,34.28
2022-09-13T04:52:53.880Z,34.83
2022-09-13T04:55:20.140Z,35.15
2022-09-13T04:57:46.388Z,34.10
2022-09-13T05:00:12.696Z,30.88
2022-09-13T05:02:38.951Z,35.58
2022-09-13T05:05:05.222Z,30.40
2022-09-13T05:07:31.489Z,29.52
2022-09-13T05:09:57.747Z,30.98
2022-09-13T05:12:23.996Z,31.38
2022-09-13T05:14:50.261Z,33.95
2022-09-13T05:17:16.521Z,32.53
2022-09-13T05:19:42.796Z,34.33
2022-09-13T05:22:09.057Z,34.60
2022-09-13T05:24:35.356Z,34.55
2022-09-13T05:27:01.615Z,33.63
2022-09-13T05:29:27.895Z,34.22
2022-09-13T05:31:54.158Z,31.75
2022-09-13T05:34:20.465Z,35.22
2022-09-13T05:36:54.035Z,32.22
2022-09-13T05:39:36.446Z,34.75
2022-09-13T05:42:08.405Z,32.53
2022-09-13T05:44:34.661Z,31.77
2022-09-13T05:47:00.923Z,37.17
2022-09-13T05:49:27.233Z,44.13
2022-09-13T05:51:53.512Z,42.75
2022-09-13T05:54:19.787Z,42.97
2022-09-13T05:56:46.044Z,42.13
2022-09-13T05:59:12.572Z,39.72
2022-09-13T06:01:38.864Z,53.53
2022-09-13T06:04:05.213Z,65.93
2022-09-13T06:06:31.473Z,72.40
2022-09-13T06:08:57.771Z,79.07
2022-09-13T06:11:24.045Z,108.57
2022-09-13T06:13:50.320Z,127.43
2022-09-13T06:16:17.254Z,137.48
2022-09-13T06:18:43.531Z,129.07
2022-09-13T06:21:09.887Z,125.05
2022-09-13T06:23:36.143Z,89.80
2022-09-13T06:26:02.433Z,74.45
2022-09-13T06:28:28.710Z,56.67
2022-09-13T06:30:54.984Z,50.17
2022-09-13T06:33:21.294Z,55.15
2022-09-13T06:35:47.567Z,65.63
2022-09-13T06:38:13.832Z,64.00
2022-09-13T06:40:40.099Z,52.53
2022-09-13T06:43:06.351Z,54.53
2022-09-13T06:45:32.627Z,54.67
2022-09-13T06:47:58.888Z,63.90
2022-09-13T06:50:25.160Z,73.60
2022-09-13T06:52:51.457Z,58.88
2022-09-13T06:55:17.736Z,60.42
2022-09-13T06:57:43.988Z,79.80
2022-09-13T07:00:10.248Z,84.22
2022-09-13T07:02:36.533Z,129.95
2022-09-13T07:05:02.792Z,134.30
2022-09-13T07:07:29.076Z,109.60
2022-09-13T07:09:55.331Z,101.40
2022-09-13T07:12:21.628Z,95.82
2022-09-13T07:14:47.884Z,99.25
2022-09-13T07:17:14.562Z,110.82
2022-09-13T07:19:40.857Z,101.35
2022-09-13T07:22:07.409Z,120.43
2022-09-13T07:24:33.672Z,87.65
2022-09-13T07:26:59.993Z,71.55
2022-09-13T07:29:26.254Z,60.80
2022-09-13T07:31:52.538Z,60.17
2022-09-13T07:34:19.000Z,60.60
2022-09-13T07:36:46.813Z,53.83
2022-09-13T07:39:15.730Z,60.97
2022-09-13T07:41:43.547Z,63.80
2022-09-13T07:44:09.813Z,73.40
2022-09-13T07:46:41.563Z,73.80
2022-09-13T07:49:07.931Z,70.35
2022-09-13T07:51:34.179Z,65.88
2022-09-13T07:54:00.443Z,75.00
2022-09-13T07:56:27.038Z,72.45
2022-09-13T07:58:54.960Z,76.00
2022-09-13T08:03:47.581Z,83.10
2022-09-13T08:06:13.863Z,112.88
2022-09-13T08:08:40.153Z,98.70
2022-09-13T08:11:06.539Z,95.82
2022-09-13T08:13:33.038Z,79.38
2022-09-13T08:15:59.317Z,74.00
2022-09-13T08:18:25.627Z,59.40
2022-09-13T08:20:51.945Z,64.40
2022-09-13T08:23:18.191Z,60.90
2022-09-13T08:25:44.470Z,58.08
2022-09-13T08:28:10.909Z,80.70
2022-09-13T08:30:37.200Z,86.55
2022-09-13T08:33:03.494Z,91.25
2022-09-13T08:35:29.807Z,125.63
2022-09-13T08:37:56.059Z,111.68
2022-09-13T08:40:22.390Z,98.20
2022-09-13T08:42:48.687Z,80.82
2022-09-13T08:45:14.971Z,66.88
2022-09-13T08:47:41.249Z,61.38
2022-09-13T08:50:07.541Z,53.88
2022-09-13T08:52:33.800Z,55.70
2022-09-13T08:55:00.102Z,48.72
2022-09-13T08:57:26.370Z,55.67
2022-09-13T08:59:52.637Z,53.55
2022-09-13T09:02:18.935Z,52.67
2022-09-13T09:04:45.233Z,52.42
2022-09-13T09:07:11.515Z,58.67
2022-09-13T09:09:37.781Z,55.55
2022-09-13T09:12:04.049Z,61.20
2022-09-13T09:14:31.189Z,68.60
2022-09-13T09:16:57.456Z,79.43
2022-09-13T09:19:24.195Z,97.47
2022-09-13T09:21:50.971Z,104.03
2022-09-13T09:24:17.232Z,106.50
2022-09-13T09:26:43.843Z,107.07
2022-09-13T09:29:10.112Z,102.07
2022-09-13T09:31:36.404Z,102.20
2022-09-13T09:34:02.687Z,81.10
2022-09-13T09:36:28.982Z,73.00
2022-09-13T09:38:56.087Z,79.45
2022-09-13T09:41:22.746Z,97.97
2022-09-13T09:43:49.191Z,109.95
2022-09-13T09:46:15.605Z,99.55
2022-09-13T09:48:42.299Z,84.63
2022-09-13T09:51:10.330Z,74.15
2022-09-13T09:53:37.403Z,61.97
2022-09-13T09:56:03.896Z,53.88
2022-09-13T09:58:30.154Z,47.85
2022-09-13T10:00:56.521Z,48.42
2022-09-13T10:03:22.800Z,45.40
2022-09-13T10:05:49.118Z,44.80
2022-09-13T10:08:15.393Z,62.63
2022-09-13T10:10:42.494Z,55.78
2022-09-13T10:13:08.824Z,39.33
2022-09-13T10:15:35.661Z,43.90
2022-09-13T10:18:02.674Z,55.78
2022-09-13T10:20:28.880Z,73.03
2022-09-13T10:22:55.131Z,65.18
2022-09-13T10:25:21.404Z,47.00
2022-09-13T10:27:47.676Z,56.60
2022-09-13T10:30:14.084Z,59.80
2022-09-13T10:32:40.399Z,59.63
2022-09-13T10:35:06.656Z,65.30
2022-09-13T10:37:35.309Z,62.97
2022-09-13T10:40:01.754Z,64.72
2022-09-13T10:42:28.036Z,61.97
2022-09-13T10:44:55.237Z,69.00
2022-09-13T10:47:21.498Z,66.57
2022-09-13T10:49:47.785Z,73.47
2022-09-13T10:52:14.557Z,71.70
2022-09-13T10:54:40.883Z,75.43
2022-09-13T10:57:07.723Z,80.85
2022-09-13T10:59:33.987Z,81.88
2022-09-13T11:02:00.247Z,82.05
2022-09-13T11:04:26.558Z,77.35
2022-09-13T11:06:52.835Z,73.43
2022-09-13T11:09:19.109Z,75.82
2022-09-13T11:11:45.903Z,82.68
2022-09-13T11:14:12.155Z,83.78
2022-09-13T11:16:38.470Z,114.00
2022-09-13T11:19:04.929Z,136.15
2022-09-13T11:21:31.199Z,123.60
2022-09-13T11:23:58.024Z,116.88
2022-09-13T11:26:24.592Z,86.55
2022-09-13T11:28:50.853Z,132.57
2022-09-13T11:31:17.226Z,135.80
2022-09-13T11:33:43.522Z,125.22
2022-09-13T11:36:09.787Z,92.65
2022-09-13T11:38:36.852Z,141.15
2022-09-13T11:41:03.806Z,101.80
2022-09-13T11:43:30.007Z,86.50
2022-09-13T11:45:56.329Z,92.25
2022-09-13T11:48:22.620Z,66.43
2022-09-13T11:50:48.940Z,129.38
2022-09-13T11:53:15.209Z,66.78
2022-09-13T11:55:41.501Z,88.90
2022-09-13T11:58:07.751Z,76.50
2022-09-13T12:00:34.052Z,52.33
2022-09-13T12:03:00.441Z,60.88
2022-09-13T12:05:26.796Z,68.88
2022-09-13T12:07:53.067Z,65.88
2022-09-13T12:10:19.981Z,57.05
2022-09-13T12:12:49.271Z,58.30
2022-09-13T12:15:15.668Z,55.63
2022-09-13T12:17:41.923Z,57.25
2022-09-13T12:20:08.624Z,62.10
2022-09-13T12:22:34.906Z,60.15
2022-09-13T12:25:03.302Z,62.60
2022-09-13T12:27:30.097Z,60.17
2022-09-13T12:29:56.279Z,62.20
2022-09-13T12:32:23.695Z,67.05
2022-09-13T12:34:50.291Z,47.70
2022-09-13T12:37:16.631Z,69.75
2022-09-13T12:39:42.919Z,47.22
2022-09-13T12:42:09.334Z,54.50
2022-09-13T12:44:35.656Z,40.10
2022-09-13T12:47:01.913Z,44.15
2022-09-13T12:49:28.216Z,45.28
2022-09-13T12:51:54.520Z,39.75
2022-09-13T12:54:20.975Z,44.60
2022-09-13T12:56:47.247Z,47.95
2022-09-13T12:59:13.503Z,45.42
2022-09-13T13:01:39.882Z,36.78
2022-09-13T13:04:06.175Z,39.25
2022-09-13T13:06:33.305Z,40.97
2022-09-13T13:08:59.623Z,39.97
2022-09-13T13:11:25.913Z,38.40
2022-09-13T13:13:52.192Z,37.65
2022-09-13T13:16:18.467Z,36.45
2022-09-13T13:18:45.219Z,37.00
2022-09-13T13:21:11.479Z,35.25
2022-09-13T13:23:38.247Z,40.45
2022-09-13T13:26:07.472Z,36.60
2022-09-13T13:28:33.731Z,35.97
2022-09-13T13:31:00.068Z,37.72
2022-09-13T13:33:26.551Z,37.90
2022-09-13T13:35:52.848Z,34.72
2022-09-13T13:38:19.105Z,37.58
2022-09-13T13:40:49.993Z,33.90
2022-09-13T13:43:16.509Z,39.15
2022-09-13T13:45:42.783Z,35.38
2022-09-13T13:48:09.107Z,38.30
2022-09-13T13:50:37.723Z,40.58
2022-09-13T13:53:06.200Z,43.83
2022-09-13T13:55:33.594Z,43.27
2022-09-13T13:57:59.848Z,36.15
2022-09-13T14:00:26.736Z,36.65
2022-09-13T14:02:53.516Z,38.93
2022-09-13T14:05:19.813Z,34.10
2022-09-13T14:07:46.197Z,43.20
2022-09-13T14:10:12.473Z,40.90
2022-09-13T14:12:38.736Z,40.55
2022-09-13T14:15:05.200Z,37.40
2022-09-13T14:17:31.977Z,36.53
2022-09-13T14:19:58.183Z,40.80
2022-09-13T14:22:24.444Z,36.30
2022-09-13T14:24:50.726Z,36.17
2022-09-13T14:27:19.996Z,36.42
2022-09-13T14:29:46.284Z,35.33
2022-09-13T14:32:12.549Z,35.50
2022-09-13T14:34:39.095Z,33.90
2022-09-13T14:37:05.353Z,38.80
2022-09-13T14:39:31.667Z,39.70
2022-09-13T14:41:58.576Z,40.30
2022-09-13T14:44:28.673Z,37.20
2022-09-13T14:46:55.407Z,39.55
2022-09-13T14:49:21.711Z,36.92
2022-09-13T14:51:47.963Z,39.17
2022-09-13T14:54:14.220Z,42.20
2022-09-13T14:56:40.477Z,49.95
2022-09-13T14:59:06.962Z,38.00
2022-09-13T15:01:33.251Z,41.75
2022-09-13T15:03:59.599Z,41.00
2022-09-13T15:06:25.959Z,43.85
2022-09-13T15:08:52.265Z,48.05
2022-09-13T15:11:18.535Z,44.95
2022-09-13T15:13:44.903Z,40.60
2022-09-13T15:16:11.366Z,48.08
2022-09-13T15:18:37.696Z,39.05
2022-09-13T15:21:03.973Z,62.75
2022-09-13T15:23:31.442Z,48.78
2022-09-13T15:25:57.864Z,44.33
2022-09-13T15:28:27.098Z,58.75
2022-09-13T15:30:53.368Z,63.50
2022-09-13T15:33:19.629Z,56.97
2022-09-13T15:35:45.901Z,52.30
2022-09-13T15:38:12.160Z,47.00
2022-09-13T15:40:38.410Z,54.67
2022-09-13T15:43:04.670Z,46.50
2022-09-13T15:45:30.927Z,44.97
2022-09-13T15:47:57.200Z,44.53
2022-09-13T15:50:25.503Z,44.30
2022-09-13T15:52:51.775Z,44.60
2022-09-13T15:55:18.045Z,44.78
2022-09-13T15:57:45.201Z,74.53
2022-09-13T16:00:11.478Z,56.47
2022-09-13T16:02:37.760Z,78.97
2022-09-13T16:05:04.068Z,75.47
2022-09-13T16:07:32.296Z,71.32
2022-09-13T16:09:58.721Z,67.15
2022-09-13T16:12:27.225Z,58.35
2022-09-13T16:14:54.565Z,45.92
2022-09-13T16:17:20.834Z,59.80
2022-09-13T16:19:47.097Z,62.22
2022-09-13T16:22:13.362Z,79.80
2022-09-13T16:24:41.284Z,72.15
2022-09-13T16:27:07.530Z,59.70
2022-09-13T16:29:33.804Z,59.72
2022-09-13T16:32:01.562Z,49.03
2022-09-13T16:36:54.040Z,58.95
2022-09-13T16:39:20.317Z,56.83
2022-09-13T16:41:46.605Z,55.15
2022-09-13T16:44:14.398Z,53.45
2022-09-13T16:49:06.919Z,58.30
2022-09-13T16:51:33.181Z,55.55
2022-09-13T16:54:00.270Z,51.78
2022-09-13T16:56:26.605Z,62.95
2022-09-13T16:58:53.343Z,62.55
2022-09-13T17:01:19.668Z,62.45
2022-09-13T17:03:45.947Z,61.42
2022-09-13T17:06:12.450Z,59.08
2022-09-13T17:08:38.745Z,58.92
2022-09-13T17:11:05.117Z,67.60
2022-09-13T17:13:31.477Z,61.70
2022-09-13T17:15:58.005Z,57.90
2022-09-13T17:18:24.317Z,53.50
2022-09-13T17:20:50.607Z,56.33
2022-09-13T17:23:16.859Z,51.17
2022-09-13T17:25:45.955Z,49.40
2022-09-13T17:28:12.217Z,55.50
2022-09-13T17:30:38.481Z,49.90
2022-09-13T17:33:07.932Z,55.80
2022-09-13T17:35:34.563Z,64.53
2022-09-13T17:38:01.685Z,59.78
2022-09-13T17:40:28.337Z,59.53
2022-09-13T17:42:54.677Z,61.20
2022-09-13T17:45:20.946Z,60.65
2022-09-13T17:47:47.239Z,78.65
2022-09-13T17:50:13.579Z,74.50
2022-09-13T17:52:39.844Z,99.97
2022-09-13T17:55:07.077Z,91.03
2022-09-13T17:57:33.334Z,89.20
2022-09-13T17:59:59.687Z,86.00
2022-09-13T18:02:27.751Z,63.42
2022-09-13T18:04:54.149Z,69.05
2022-09-13T18:07:20.441Z,66.57
2022-09-13T18:09:47.005Z,60.90
2022-09-13T18:12:13.275Z,55.67
2022-09-13T18:14:39.531Z,53.10
2022-09-13T18:17:12.836Z,50.67
2022-09-13T18:19:46.366Z,51.10
2022-09-13T18:22:12.876Z,53.42
2022-09-13T18:24:39.141Z,55.47
2022-09-13T18:27:05.401Z,65.20
2022-09-13T18:29:32.834Z,68.72
2022-09-13T18:31:59.084Z,60.10
2022-09-13T18:34:27.666Z,75.20
2022-09-13T18:36:54.218Z,78.55
2022-09-13T18:39:20.508Z,80.80
2022-09-13T18:41:47.837Z,70.97
2022-09-13T18:44:14.168Z,73.70
2022-09-13T18:46:40.474Z,69.18
2022-09-13T18:49:06.846Z,66.97
2022-09-13T18:51:33.095Z,68.38
2022-09-13T18:53:59.539Z,79.00
2022-09-13T18:56:25.992Z,71.72
2022-09-13T18:58:53.096Z,80.10
2022-09-13T19:01:19.465Z,75.20
2022-09-13T19:03:45.859Z,95.07
2022-09-13T19:06:12.184Z,107.90
2022-09-13T19:08:38.450Z,82.82
2022-09-13T19:11:04.717Z,78.93
2022-09-13T19:13:31.002Z,88.20
2022-09-13T19:15:57.290Z,113.15
2022-09-13T19:18:23.589Z,81.97
2022-09-13T19:20:49.859Z,97.50
2022-09-13T19:23:16.430Z,92.78
2022-09-13T19:25:42.909Z,129.98
2022-09-13T19:28:09.176Z,114.70
2022-09-13T19:30:35.453Z,92.43
2022-09-13T19:33:01.717Z,78.32
2022-09-13T19:35:27.977Z,70.60
2022-09-13T19:37:54.231Z,80.30
2022-09-13T19:40:20.630Z,68.72
2022-09-13T19:42:46.978Z,67.10
2022-09-13T19:45:13.551Z,79.30
2022-09-13T19:50:26.501Z,85.05
2022-09-13T19:52:52.755Z,73.35
2022-09-13T19:55:19.019Z,78.40
2022-09-13T19:57:45.306Z,82.72
2022-09-13T20:00:11.582Z,84.32
2022-09-13T20:02:37.829Z,79.68
2022-09-13T20:05:04.190Z,76.43
2022-09-13T20:07:30.499Z,79.63
2022-09-13T20:09:56.758Z,79.93
2022-09-13T20:12:23.348Z,80.05
2022-09-13T20:14:49.605Z,80.70
2022-09-13T20:17:15.855Z,89.15
2022-09-13T20:19:47.641Z,94.28
2022-09-13T20:22:15.468Z,103.32
2022-09-13T20:24:41.735Z,123.43
2022-09-13T20:27:08.009Z,135.52
2022-09-13T20:29:34.273Z,143.43
2022-09-13T20:32:02.036Z,146.70
2022-09-13T20:34:28.377Z,160.73
2022-09-13T20:36:54.638Z,186.20
2022-09-13T20:39:20.947Z,216.85
2022-09-13T20:41:49.250Z,227.50
2022-09-13T20:44:15.684Z,175.93
2022-09-13T20:46:42.817Z,145.07
2022-09-13T20:49:09.743Z,115.90
2022-09-13T20:51:36.009Z,100.28
2022-09-13T20:54:04.229Z,106.68
2022-09-13T20:56:32.185Z,123.60
2022-09-13T21:01:26.743Z,107.15
2022-09-13T21:03:53.076Z,71.47
2022-09-13T21:06:19.544Z,65.28
2022-09-13T21:08:48.979Z,61.88
2022-09-13T21:11:15.269Z,72.38
2022-09-13T21:13:42.055Z,64.05
2022-09-13T21:16:08.312Z,61.45
2022-09-13T21:18:34.573Z,68.28
2022-09-13T21:21:00.834Z,69.22
2022-09-13T21:23:27.125Z,77.70
2022-09-13T21:25:53.384Z,85.32
2022-09-13T21:28:19.635Z,81.82
2022-09-13T21:30:45.941Z,78.15
2022-09-13T21:33:12.280Z,80.72
2022-09-13T21:35:41.520Z,79.18
2022-09-13T21:38:07.780Z,99.63
2022-09-13T21:40:34.656Z,125.75
2022-09-13T21:43:01.012Z,123.50
2022-09-13T21:45:27.301Z,121.55
2022-09-13T21:47:53.581Z,126.88
2022-09-13T21:50:19.844Z,114.25
2022-09-13T21:52:46.103Z,108.72
2022-09-13T21:55:12.359Z,101.05
2022-09-13T21:57:38.611Z,92.65
2022-09-13T22:00:05.197Z,84.80
2022-09-13T22:02:31.691Z,74.10
2022-09-13T22:04:58.065Z,70.50
2022-09-13T22:07:24.335Z,67.82
2022-09-13T22:09:50.610Z,56.80
2022-09-13T22:12:16.859Z,57.63
2022-09-13T22:14:43.745Z,55.20
2022-09-13T22:17:10.081Z,56.30
2022-09-13T22:19:36.477Z,60.45
2022-09-13T22:22:02.821Z,66.60
2022-09-13T22:24:29.329Z,57.35
2022-09-13T22:26:56.349Z,52.30
2022-09-13T22:29:22.584Z,61.60
2022-09-13T22:31:48.853Z,73.88
2022-09-13T22:34:15.114Z,74.45
2022-09-13T22:36:41.381Z,66.25
2022-09-13T22:39:07.656Z,55.80
2022-09-13T22:41:33.911Z,55.63
2022-09-13T22:44:00.188Z,58.67
2022-09-13T22:46:26.488Z,67.40
2022-09-13T22:48:52.804Z,82.95
2022-09-13T22:51:19.074Z,81.45
2022-09-13T22:53:45.335Z,74.80
2022-09-13T22:56:11.614Z,85.30
2022-09-13T22:58:37.865Z,85.70
2022-09-13T23:01:04.181Z,96.43
2022-09-13T23:03:30.969Z,104.28
2022-09-13T23:05:57.265Z,106.75
2022-09-13T23:08:23.546Z,102.10
2022-09-13T23:10:49.902Z,96.43
2022-09-13T23:13:16.153Z,72.75
2022-09-13T23:15:42.416Z,67.72
2022-09-13T23:18:09.639Z,53.03
2022-09-13T23:20:36.290Z,46.55
2022-09-13T23:23:02.557Z,54.17
2022-09-13T23:25:28.914Z,62.97
2022-09-13T23:27:55.191Z,72.18
2022-09-13T23:30:21.444Z,80.28
2022-09-13T23:32:47.708Z,107.80
2022-09-13T23:35:13.959Z,78.10
2022-09-13T23:37:40.217Z,84.60
2022-09-13T23:40:06.708Z,94.53
2022-09-13T23:42:32.980Z,107.38
2022-09-13T23:44:59.239Z,111.28
2022-09-13T23:47:25.492Z,125.13
2022-09-13T23:49:51.753Z,131.60
2022-09-13T23:52:18.023Z,135.52
2022-09-13T23:54:45.556Z,123.72
2022-09-13T23:57:11.807Z,117.95
2022-09-13T23:59:38.075Z,102.68
